Time;durP1;ratioP1;P1;durP2;ratioP2;P2;SDS_P1;SDS_P2;PMS_P1;PMS_P2;Temp;Humidity;BMP_temperature;BMP_pressure;BME280_temperature;BME280_humidity;BME280_pressure;Samples;Min_cycle;Max_cycle;Signal;HPM_P1;HPM_P2
2020/12/02 00:01:25;;;;;;;8.38;5.82;;;9.90;79.10;;;;;;5012642;28;20042;-77
2020/12/02 00:04:01;;;;;;;8.40;5.50;;;9.90;79.10;;;;;;4996654;28;20053;-79
2020/12/02 00:06:29;;;;;;;9.23;6.07;;;9.90;79.10;;;;;;5011876;28;20033;-77
2020/12/02 00:09:03;;;;;;;8.13;5.68;;;9.80;79.00;;;;;;5010863;28;20025;-78
2020/12/02 00:11:31;;;;;;;8.48;5.40;;;9.80;79.00;;;;;;5010730;28;20080;-78
2020/12/02 00:14:05;;;;;;;7.93;5.65;;;9.80;79.00;;;;;;4995004;28;20034;-80
2020/12/02 00:16:32;;;;;;;9.10;5.97;;;9.80;79.10;;;;;;5012178;28;20394;-77
2020/12/02 00:18:59;;;;;;;8.68;5.72;;;9.80;79.00;;;;;;5010650;28;20088;-81
2020/12/02 00:21:29;;;;;;;9.07;5.82;;;9.80;79.00;;;;;;5010849;28;20036;-77
2020/12/02 00:23:56;;;;;;;8.63;5.63;;;9.80;79.10;;;;;;5010837;28;20022;-78
2020/12/02 00:26:23;;;;;;;8.13;5.50;;;9.80;79.00;;;;;;4992903;28;20030;-77
2020/12/02 00:28:49;;;;;;;8.95;6.38;;;9.80;79.00;;;;;;4975395;28;20416;-77
2020/12/02 00:31:17;;;;;;;8.88;6.03;;;9.80;79.10;;;;;;4991632;28;20089;-77
2020/12/02 00:33:43;;;;;;;8.40;5.97;;;9.80;79.10;;;;;;5007997;28;20053;-77
2020/12/02 00:36:09;;;;;;;8.30;5.50;;;9.80;79.00;;;;;;5008330;28;20473;-80
2020/12/02 00:38:35;;;;;;;8.82;5.65;;;9.80;79.10;;;;;;5011485;28;20030;-77
2020/12/02 00:41:02;;;;;;;8.32;5.45;;;9.80;79.10;;;;;;4991335;28;20041;-84
2020/12/02 00:43:29;;;;;;;10.48;5.95;;;9.70;79.10;;;;;;5008935;28;20103;-78
2020/12/02 00:45:59;;;;;;;7.82;5.63;;;9.80;79.10;;;;;;4973412;28;20030;-78
2020/12/02 00:48:28;;;;;;;10.57;6.28;;;9.70;79.70;;;;;;5008249;28;20462;-77
2020/12/02 00:50:54;;;;;;;8.52;5.80;;;9.80;79.10;;;;;;5012178;28;20072;-79
2020/12/02 00:53:24;;;;;;;9.57;5.55;;;9.80;79.10;;;;;;4994174;28;20034;-77
2020/12/02 00:55:51;;;;;;;8.93;6.07;;;9.80;79.10;;;;;;4994306;28;20398;-78
2020/12/02 00:58:51;;;;;;;8.93;5.93;;;9.70;79.00;;;;;;5012068;28;20025;-77
2020/12/02 01:01:25;;;;;;;8.25;5.57;;;9.70;79.40;;;;;;5002806;28;20103;-77
2020/12/02 01:03:58;;;;;;;9.02;5.68;;;9.70;79.10;;;;;;5011942;28;20386;-78
2020/12/02 01:06:24;;;;;;;9.43;6.13;;;9.70;79.00;;;;;;5010489;28;20101;-77
2020/12/02 01:08:50;;;;;;;8.65;5.85;;;9.70;79.00;;;;;;4978635;28;20180;-77
2020/12/02 01:11:19;;;;;;;8.00;5.30;;;9.70;79.10;;;;;;5011300;28;20049;-77
2020/12/02 01:13:45;;;;;;;9.50;5.93;;;9.70;79.10;;;;;;4998846;28;20025;-78
2020/12/02 01:16:17;;;;;;;8.88;5.82;;;9.70;79.10;;;;;;4994446;28;20383;-77
2020/12/02 01:18:43;;;;;;;8.30;5.38;;;9.70;79.10;;;;;;5011062;28;20037;-78
2020/12/02 01:21:34;;;;;;;9.27;5.97;;;9.70;79.10;;;;;;5011261;28;20034;-77
2020/12/02 01:24:09;;;;;;;8.68;5.82;;;9.70;79.20;;;;;;5012518;28;20108;-78
2020/12/02 01:26:45;;;;;;;9.15;5.85;;;9.70;79.10;;;;;;5012955;28;20026;-77
2020/12/02 01:29:16;;;;;;;9.15;6.00;;;9.70;79.10;;;;;;5011082;28;20532;-77
2020/12/02 01:31:51;;;;;;;8.50;5.72;;;9.70;79.10;;;;;;5011725;28;20061;-77
2020/12/02 01:34:21;;;;;;;9.43;6.15;;;9.70;79.10;;;;;;5010277;28;20036;-77
2020/12/02 01:37:05;;;;;;;7.53;4.97;;;9.70;79.10;;;;;;5026593;28;20100;-79
2020/12/02 01:39:36;;;;;;;8.98;5.78;;;9.60;79.10;;;;;;5011649;28;20026;-77
2020/12/02 01:42:05;;;;;;;8.05;5.53;;;9.60;79.10;;;;;;5010382;28;20470;-84
2020/12/02 01:44:31;;;;;;;9.63;5.47;;;9.60;79.10;;;;;;5011940;28;20026;-77
2020/12/02 01:47:01;;;;;;;9.45;6.00;;;9.60;79.10;;;;;;5011720;28;20104;-79
2020/12/02 01:49:43;;;;;;;9.85;6.13;;;9.60;79.10;;;;;;5010606;28;20065;-78
2020/12/02 01:52:42;;;;;;;7.97;5.63;;;9.60;79.20;;;;;;5011139;28;20033;-77
2020/12/02 01:55:14;;;;;;;7.88;5.25;;;9.60;79.20;;;;;;5005971;28;20042;-77
2020/12/02 01:57:40;;;;;;;8.05;5.53;;;9.60;79.10;;;;;;5011373;28;20034;-78
2020/12/02 02:00:06;;;;;;;8.82;5.75;;;9.60;79.10;;;;;;4994306;28;20045;-77
2020/12/02 02:03:02;;;;;;;9.70;6.35;;;9.60;79.20;;;;;;5009105;28;20041;-77
2020/12/02 02:05:48;;;;;;;8.45;5.40;;;9.60;79.90;;;;;;5009295;28;20080;-77
2020/12/02 02:08:15;;;;;;;8.48;5.90;;;9.60;79.20;;;;;;5005532;28;20541;-77
2020/12/02 02:10:45;;;;;;;8.68;5.85;;;9.60;79.20;;;;;;4994481;28;20038;-77
2020/12/02 02:13:28;;;;;;;9.23;5.95;;;9.60;79.20;;;;;;5010699;28;20042;-77
2020/12/02 02:16:05;;;;;;;8.98;5.97;;;9.60;79.20;;;;;;5010213;28;20061;-77
2020/12/02 02:18:31;;;;;;;;;;;9.60;79.20;;;;;;5010739;28;20029;-77
2020/12/02 02:21:01;;;;;;;8.68;5.75;;;9.50;79.10;;;;;;5010972;28;19909;-80
2020/12/02 02:23:27;;;;;;;9.13;5.60;;;9.50;79.00;;;;;;5007090;28;20394;-78
2020/12/02 02:26:15;;;;;;;7.63;4.93;;;9.50;79.10;;;;;;5010498;28;20034;-77
2020/12/02 02:29:05;;;;;;;8.07;5.30;;;9.50;79.20;;;;;;5010347;28;20397;-79
2020/12/02 02:31:37;;;;;;;9.65;6.20;;;9.50;79.20;;;;;;5004069;28;20470;-77
2020/12/02 02:34:05;;;;;;;8.85;5.95;;;9.50;79.20;;;;;;5013420;28;20029;-78
2020/12/02 02:36:31;;;;;;;8.57;5.90;;;9.50;79.20;;;;;;5014598;28;20093;-77
2020/12/02 02:38:58;;;;;;;8.95;5.90;;;9.50;79.20;;;;;;4997305;28;20496;-78
2020/12/02 02:41:26;;;;;;;8.07;5.30;;;9.50;79.20;;;;;;5030208;28;20401;-76
2020/12/02 02:43:52;;;;;;;7.90;5.38;;;9.50;79.20;;;;;;5030928;28;20033;-76
2020/12/02 02:46:17;;;;;;;9.80;6.10;;;9.50;79.20;;;;;;4981610;28;20155;-76
2020/12/02 02:48:43;;;;;;;9.07;5.45;;;9.50;79.20;;;;;;5012819;28;20040;-77
2020/12/02 02:51:09;;;;;;;8.27;5.80;;;9.50;79.20;;;;;;5023440;28;20101;-80
2020/12/02 02:53:35;;;;;;;10.45;6.53;;;9.50;79.20;;;;;;5016758;28;20069;-80
2020/12/02 02:56:04;;;;;;;8.68;5.70;;;9.50;79.30;;;;;;5030905;28;20493;-82
2020/12/02 02:58:30;;;;;;;8.05;5.35;;;9.50;79.20;;;;;;4983241;28;20064;-77
2020/12/02 03:01:00;;;;;;;9.00;5.80;;;9.50;79.20;;;;;;5013830;28;20038;-77
2020/12/02 03:03:30;;;;;;;9.35;5.85;;;9.50;79.30;;;;;;5018809;28;20104;-77
2020/12/02 03:05:58;;;;;;;9.85;5.72;;;9.50;79.30;;;;;;5013902;28;20506;-78
2020/12/02 03:08:24;;;;;;;9.77;6.40;;;9.50;79.30;;;;;;5023031;28;20079;-77
2020/12/02 03:10:55;;;;;;;9.35;5.93;;;9.50;79.20;;;;;;5029136;28;20037;-77
2020/12/02 03:13:43;;;;;;;8.93;5.72;;;9.50;79.30;;;;;;4981203;28;20414;-77
2020/12/02 03:16:28;;;;;;;9.50;5.85;;;9.50;79.30;;;;;;5015927;28;20513;-77
2020/12/02 03:19:01;;;;;;;8.43;5.28;;;9.50;79.30;;;;;;4976484;28;20038;-77
2020/12/02 03:21:27;;;;;;;8.35;5.43;;;9.50;79.30;;;;;;5007989;28;20519;-77
2020/12/02 03:23:53;;;;;;;9.45;6.05;;;9.40;79.20;;;;;;5014536;28;20104;-77
2020/12/02 03:26:20;;;;;;;8.93;5.70;;;9.50;79.30;;;;;;5021604;28;20033;-78
2020/12/02 03:28:46;;;;;;;8.82;5.60;;;9.40;79.30;;;;;;5029428;28;20041;-77
2020/12/02 03:31:18;;;;;;;10.02;6.57;;;9.40;79.20;;;;;;5013463;28;20030;-77
2020/12/02 03:33:44;;;;;;;9.80;6.05;;;9.40;79.30;;;;;;5013143;28;20037;-77
2020/12/02 03:36:18;;;;;;;11.65;6.43;;;9.40;79.20;;;;;;5021508;28;20036;-77
2020/12/02 03:38:44;;;;;;;10.43;5.85;;;9.40;79.30;;;;;;5012659;28;20041;-77
2020/12/02 03:41:11;;;;;;;8.90;5.53;;;9.40;79.20;;;;;;5012032;28;20040;-77
2020/12/02 03:43:38;;;;;;;8.82;5.72;;;9.40;79.30;;;;;;5013612;28;20220;-77
2020/12/02 03:46:05;;;;;;;9.88;5.90;;;9.40;79.20;;;;;;5011321;28;20034;-77
2020/12/02 03:48:31;;;;;;;10.25;5.88;;;9.40;79.30;;;;;;5018498;28;20026;-77
2020/12/02 03:50:57;;;;;;;10.07;6.68;;;9.40;79.20;;;;;;5012209;28;20045;-78
2020/12/02 03:53:23;;;;;;;9.70;6.00;;;9.40;79.30;;;;;;5012703;28;20037;-77
2020/12/02 03:55:49;;;;;;;8.10;5.50;;;9.40;79.30;;;;;;5012395;28;20046;-77
2020/12/02 03:58:15;;;;;;;10.88;6.05;;;9.40;79.40;;;;;;4996267;28;20068;-77
2020/12/02 04:00:44;;;;;;;9.27;5.95;;;9.40;79.30;;;;;;5011927;28;20392;-77
2020/12/02 04:03:11;;;;;;;8.45;5.50;;;9.40;79.30;;;;;;4979364;28;20032;-76
2020/12/02 04:05:36;;;;;;;9.32;6.07;;;9.40;79.30;;;;;;5012618;28;20026;-77
2020/12/02 04:08:02;;;;;;;9.20;5.43;;;9.40;79.30;;;;;;5012955;28;20398;-85
2020/12/02 04:10:28;;;;;;;8.43;5.78;;;9.40;79.30;;;;;;5012317;28;20042;-77
2020/12/02 04:12:54;;;;;;;8.93;5.70;;;9.40;79.30;;;;;;5014051;28;20041;-77
2020/12/02 04:15:21;;;;;;;10.40;6.38;;;9.40;79.30;;;;;;5012280;28;20025;-77
2020/12/02 04:17:48;;;;;;;10.63;6.32;;;9.40;79.30;;;;;;5020353;28;20034;-76
2020/12/02 04:20:17;;;;;;;8.52;5.55;;;9.40;79.30;;;;;;5013714;28;20037;-77
2020/12/02 04:22:45;;;;;;;9.68;5.90;;;9.40;79.40;;;;;;4996316;28;20053;-78
2020/12/02 04:25:11;;;;;;;9.07;6.03;;;9.40;79.40;;;;;;5012248;28;20487;-78
2020/12/02 04:27:37;;;;;;;9.32;5.93;;;9.30;79.30;;;;;;5013204;28;20037;-76
2020/12/02 04:30:05;;;;;;;8.27;5.60;;;9.30;79.30;;;;;;5011929;28;20042;-84
2020/12/02 04:32:30;;;;;;;9.35;6.07;;;9.30;79.30;;;;;;4995034;28;20053;-77
2020/12/02 04:35:01;;;;;;;9.60;5.85;;;9.40;79.40;;;;;;5012702;28;20034;-77
2020/12/02 04:37:31;;;;;;;8.90;5.93;;;9.30;79.30;;;;;;5014282;28;20026;-76
2020/12/02 04:39:57;;;;;;;10.52;6.35;;;9.30;79.30;;;;;;5013324;28;20061;-76
2020/12/02 04:42:36;;;;;;;10.45;6.22;;;9.40;79.40;;;;;;5013049;28;20049;-77
2020/12/02 04:45:04;;;;;;;9.98;6.20;;;9.30;79.40;;;;;;5011849;28;20500;-82
2020/12/02 04:47:37;;;;;;;10.30;6.38;;;9.30;79.30;;;;;;4995828;28;20424;-77
2020/12/02 04:50:12;;;;;;;9.68;5.97;;;9.30;79.40;;;;;;5012749;28;20030;-83
2020/12/02 04:52:39;;;;;;;10.27;6.68;;;9.30;79.30;;;;;;5011877;28;20041;-77
2020/12/02 04:55:05;;;;;;;9.45;6.00;;;9.30;79.30;;;;;;5030991;28;20405;-77
2020/12/02 04:57:30;;;;;;;11.40;6.38;;;9.30;79.30;;;;;;5024813;28;20034;-77
2020/12/02 04:59:56;;;;;;;9.65;5.75;;;9.30;79.40;;;;;;5011598;28;20033;-78
2020/12/02 05:02:27;;;;;;;9.63;6.25;;;9.30;79.40;;;;;;5013015;28;20036;-77
2020/12/02 05:05:02;;;;;;;9.38;5.90;;;9.30;79.40;;;;;;5012923;28;20030;-77
2020/12/02 05:07:30;;;;;;;10.93;6.20;;;9.30;79.40;;;;;;5012761;28;20037;-80
2020/12/02 05:10:00;;;;;;;8.65;5.93;;;9.30;79.40;;;;;;5012979;28;20054;-77
2020/12/02 05:12:32;;;;;;;10.32;6.20;;;9.30;79.40;;;;;;5020141;28;20025;-77
2020/12/02 05:15:16;;;;;;;10.70;6.82;;;9.30;79.40;;;;;;5011551;28;20030;-77
2020/12/02 05:17:42;;;;;;;10.20;6.10;;;9.30;79.40;;;;;;5027430;28;20060;-77
2020/12/02 05:20:11;;;;;;;10.43;6.10;;;9.30;79.40;;;;;;5011487;28;20117;-78
2020/12/02 05:22:39;;;;;;;9.88;5.80;;;9.30;79.40;;;;;;5011543;28;20034;-77
2020/12/02 05:25:14;;;;;;;9.82;5.70;;;9.30;79.40;;;;;;5011165;28;20033;-78
2020/12/02 05:27:41;;;;;;;;;;;9.30;79.40;;;;;;5012457;28;20076;-77
2020/12/02 05:30:26;;;;;;;9.05;5.78;;;9.30;79.40;;;;;;5011205;28;19919;-77
2020/12/02 05:33:31;;;;;;;8.88;5.55;;;9.30;79.30;;;;;;4995820;28;20243;-76
2020/12/02 05:36:14;;;;;;;9.15;5.45;;;9.20;79.30;;;;;;4935855;29;20027;-79
2020/12/02 05:38:49;;;;;;;8.60;5.38;;;9.20;79.30;;;;;;5004869;28;20543;-77
2020/12/02 05:41:17;;;;;;;9.20;5.30;;;9.20;79.40;;;;;;5012360;28;20072;-78
2020/12/02 05:43:56;;;;;;;9.55;5.65;;;9.20;79.40;;;;;;5011581;28;20032;-77
2020/12/02 05:46:47;;;;;;;9.23;5.72;;;9.20;79.50;;;;;;5011242;28;20022;-76
2020/12/02 05:49:17;;;;;;;9.00;5.82;;;9.20;79.50;;;;;;5011511;28;20040;-77
2020/12/02 05:51:44;;;;;;;8.70;5.13;;;9.20;79.40;;;;;;5012272;28;20041;-76
2020/12/02 05:54:25;;;;;;;9.00;5.70;;;9.20;79.50;;;;;;5010884;28;20037;-76
2020/12/02 05:56:52;;;;;;;9.77;5.95;;;9.20;79.50;;;;;;5011355;28;20038;-77
2020/12/02 05:59:18;;;;;;;11.40;5.60;;;9.20;79.50;;;;;;4991613;28;20069;-78
2020/12/02 06:01:45;;;;;;;7.03;4.97;;;9.20;79.50;;;;;;5005389;28;20445;-77
2020/12/02 06:04:14;;;;;;;9.40;5.65;;;9.20;79.50;;;;;;4994139;28;20044;-81
2020/12/02 06:06:40;;;;;;;7.90;4.97;;;9.20;79.50;;;;;;5010893;28;20373;-77
2020/12/02 06:09:06;;;;;;;10.38;6.20;;;9.20;79.50;;;;;;5014516;28;20080;-78
2020/12/02 06:11:35;;;;;;;8.52;5.45;;;9.20;79.50;;;;;;5015712;28;20092;-77
2020/12/02 06:14:36;;;;;;;9.23;5.30;;;9.20;79.50;;;;;;5014897;28;20458;-77
2020/12/02 06:17:03;;;;;;;8.75;5.53;;;9.20;79.50;;;;;;4970450;28;20026;-82
2020/12/02 06:19:50;;;;;;;8.52;4.97;;;9.20;79.40;;;;;;5006453;28;20038;-77
2020/12/02 06:22:38;;;;;;;9.40;5.40;;;9.20;79.60;;;;;;5011048;28;20034;-78
2020/12/02 06:25:27;;;;;;;9.45;5.47;;;9.20;79.60;;;;;;5000712;28;20085;-77
2020/12/02 06:27:52;;;;;;;8.05;5.00;;;9.20;79.50;;;;;;5010068;28;20100;-77
2020/12/02 06:30:20;;;;;;;9.13;5.72;;;9.20;79.40;;;;;;5006196;28;20049;-77
2020/12/02 06:33:03;;;;;;;9.45;5.35;;;9.20;79.50;;;;;;5014756;28;20462;-76
2020/12/02 06:35:29;;;;;;;8.63;5.18;;;9.20;79.60;;;;;;5014390;28;20030;-77
2020/12/02 06:38:13;;;;;;;9.15;5.70;;;9.20;79.50;;;;;;5030403;28;20080;-76
2020/12/02 06:40:58;;;;;;;8.90;5.38;;;9.20;79.60;;;;;;5013714;28;20030;-79
2020/12/02 06:43:38;;;;;;;9.13;4.93;;;9.20;79.60;;;;;;5011195;28;20030;-77
2020/12/02 06:46:09;;;;;;;9.68;5.47;;;9.10;79.50;;;;;;5029600;28;20084;-79
2020/12/02 06:48:37;;;;;;;8.85;5.30;;;9.10;79.50;;;;;;5014053;28;20045;-77
2020/12/02 06:51:11;;;;;;;7.90;5.18;;;9.10;79.50;;;;;;4982002;28;20038;-81
2020/12/02 06:53:37;;;;;;;8.05;5.00;;;9.10;79.50;;;;;;5013368;28;20053;-77
2020/12/02 06:56:04;;;;;;;8.95;5.28;;;9.10;79.50;;;;;;4995883;28;20130;-83
2020/12/02 06:58:30;;;;;;;8.85;5.20;;;9.10;79.50;;;;;;5013141;28;20022;-77
2020/12/02 07:00:59;;;;;;;10.38;5.93;;;9.10;79.50;;;;;;5013378;28;20026;-77
2020/12/02 07:03:27;;;;;;;8.40;4.90;;;9.10;79.50;;;;;;5011317;28;20026;-77
2020/12/02 07:06:05;;;;;;;10.23;5.75;;;9.10;79.50;;;;;;5013125;28;20026;-78
2020/12/02 07:08:34;;;;;;;8.48;4.90;;;9.10;79.60;;;;;;5012700;28;20025;-78
2020/12/02 07:11:11;;;;;;;9.27;5.03;;;9.10;79.50;;;;;;4996211;28;20032;-82
2020/12/02 07:13:39;;;;;;;9.70;5.20;;;9.10;79.60;;;;;;5012633;28;20113;-77
2020/12/02 07:16:25;;;;;;;9.00;5.00;;;9.10;79.50;;;;;;5012902;28;20100;-78
2020/12/02 07:19:02;;;;;;;8.95;5.07;;;9.10;79.60;;;;;;5028570;28;20018;-77
2020/12/02 07:21:37;;;;;;;7.53;4.88;;;9.10;79.60;;;;;;5028500;28;20117;-78
2020/12/02 07:24:03;;;;;;;;;;;9.10;79.60;;;;;;5013310;28;20383;-77
2020/12/02 07:26:30;;;;;;;7.68;4.85;;;9.10;79.50;;;;;;5021934;28;19913;-79
2020/12/02 07:29:10;;;;;;;8.07;4.90;;;9.10;79.40;;;;;;5022959;28;20130;-77
2020/12/02 07:31:36;;;;;;;8.38;4.65;;;9.10;79.50;;;;;;5013622;28;20038;-78
2020/12/02 07:34:12;;;;;;;8.82;5.22;;;9.10;79.60;;;;;;5013241;28;20363;-78
2020/12/02 07:36:38;;;;;;;7.15;4.57;;;9.10;79.60;;;;;;5013185;28;20200;-77
2020/12/02 07:39:14;;;;;;;8.25;4.90;;;9.00;79.60;;;;;;4969070;28;20065;-80
2020/12/02 07:41:54;;;;;;;9.48;5.22;;;9.10;79.70;;;;;;5013488;28;20033;-78
2020/12/02 07:44:22;;;;;;;8.75;5.07;;;9.10;79.60;;;;;;5013016;28;20060;-80
2020/12/02 07:46:51;;;;;;;8.38;4.82;;;9.10;79.60;;;;;;5013189;28;20037;-77
2020/12/02 07:49:17;;;;;;;9.68;5.15;;;9.10;79.70;;;;;;5014228;28;20105;-77
2020/12/02 07:52:00;;;;;;;7.43;4.70;;;9.10;79.60;;;;;;4996291;28;20037;-79
2020/12/02 07:54:27;;;;;;;7.97;4.82;;;9.10;79.70;;;;;;5012555;28;20490;-77
2020/12/02 07:56:53;;;;;;;8.25;4.80;;;9.10;79.60;;;;;;5013919;28;20064;-78
2020/12/02 07:59:28;;;;;;;8.50;4.78;;;9.10;79.60;;;;;;4983775;28;20120;-77
2020/12/02 08:02:07;;;;;;;7.32;4.78;;;9.10;80.30;;;;;;4995367;28;20448;-79
2020/12/02 08:04:38;;;;;;;8.43;4.85;;;9.10;79.70;;;;;;4996140;28;20025;-78
2020/12/02 08:07:12;;;;;;;7.63;4.78;;;9.00;79.60;;;;;;5013258;28;20520;-78
2020/12/02 08:09:44;;;;;;;8.10;4.47;;;9.00;79.60;;;;;;5017683;28;20022;-78
2020/12/02 08:12:28;;;;;;;10.25;4.85;;;9.00;79.60;;;;;;4997166;28;20034;-78
2020/12/02 08:15:09;;;;;;;7.57;4.40;;;9.00;79.60;;;;;;5019463;28;20491;-78
2020/12/02 08:17:35;;;;;;;7.97;4.57;;;9.00;79.60;;;;;;5012607;28;20528;-78
2020/12/02 08:20:31;;;;;;;7.47;4.57;;;9.00;79.60;;;;;;5003174;28;20025;-79
2020/12/02 08:23:05;;;;;;;8.98;4.60;;;9.00;79.70;;;;;;5007081;28;20022;-77
2020/12/02 08:25:44;;;;;;;6.72;3.90;;;9.00;79.60;;;;;;4995804;28;20030;-77
2020/12/02 08:28:17;;;;;;;7.32;4.35;;;9.00;79.60;;;;;;5020201;28;20326;-77
2020/12/02 08:30:43;;;;;;;7.85;4.47;;;9.00;79.60;;;;;;5012219;28;20038;-76
2020/12/02 08:33:14;;;;;;;6.85;4.22;;;9.00;79.60;;;;;;5010634;28;20072;-77
2020/12/02 08:35:46;;;;;;;7.63;4.50;;;9.00;79.70;;;;;;5010705;28;20084;-77
2020/12/02 08:38:35;;;;;;;7.70;4.78;;;9.00;79.70;;;;;;5016006;28;20022;-77
2020/12/02 08:41:02;;;;;;;6.97;4.05;;;9.00;79.70;;;;;;5004576;28;20041;-79
2020/12/02 08:43:32;;;;;;;6.85;4.28;;;9.00;79.60;;;;;;4995282;28;20030;-77
2020/12/02 08:46:09;;;;;;;8.05;4.45;;;9.00;79.70;;;;;;5027723;28;20026;-80
2020/12/02 08:48:37;;;;;;;7.13;4.18;;;9.00;79.70;;;;;;5011925;28;20021;-77
2020/12/02 08:51:06;;;;;;;7.10;4.30;;;9.00;79.70;;;;;;5011805;28;20034;-77
2020/12/02 08:53:32;;;;;;;7.07;4.28;;;9.00;79.70;;;;;;5011634;28;20036;-77
2020/12/02 08:55:59;;;;;;;7.80;4.60;;;9.00;79.70;;;;;;5011625;28;20057;-77
2020/12/02 08:58:25;;;;;;;6.88;4.47;;;9.00;79.70;;;;;;5011533;28;20036;-77
2020/12/02 09:00:52;;;;;;;6.22;4.05;;;9.00;79.70;;;;;;4995135;28;20026;-77
2020/12/02 09:03:21;;;;;;;7.80;4.28;;;9.00;79.70;;;;;;5027246;28;20075;-76
2020/12/02 09:05:47;;;;;;;7.47;4.68;;;9.00;79.70;;;;;;4994682;28;20076;-77
2020/12/02 09:08:13;;;;;;;7.20;4.45;;;9.00;79.70;;;;;;5011440;28;20038;-77
2020/12/02 09:10:39;;;;;;;6.25;4.30;;;9.00;79.70;;;;;;4994848;28;20390;-80
2020/12/02 09:13:05;;;;;;;6.57;4.05;;;9.00;79.70;;;;;;4992395;28;20085;-77
2020/12/02 09:15:31;;;;;;;8.07;4.13;;;9.00;79.70;;;;;;4994677;28;20125;-76
2020/12/02 09:17:57;;;;;;;7.03;4.15;;;9.00;79.70;;;;;;4995414;28;20037;-76
2020/12/02 09:20:24;;;;;;;7.20;4.00;;;9.00;79.70;;;;;;4993315;28;20036;-77
2020/12/02 09:22:51;;;;;;;6.60;4.50;;;9.00;79.70;;;;;;5011350;28;20070;-80
2020/12/02 09:25:17;;;;;;;7.00;4.05;;;9.00;79.70;;;;;;5010238;28;20037;-75
2020/12/02 09:27:43;;;;;;;7.35;4.50;;;9.00;79.70;;;;;;5012233;28;20042;-77
2020/12/02 09:30:10;;;;;;;6.82;4.28;;;9.00;79.70;;;;;;5015635;28;20040;-77
2020/12/02 09:32:35;;;;;;;7.20;4.32;;;9.00;79.70;;;;;;5016228;28;20080;-77
2020/12/02 09:35:02;;;;;;;5.38;3.72;;;9.00;79.70;;;;;;5011414;28;20428;-77
2020/12/02 09:37:27;;;;;;;6.22;3.97;;;9.00;79.70;;;;;;4993931;28;20033;-80
2020/12/02 09:39:55;;;;;;;6.22;3.70;;;9.00;79.70;;;;;;5014780;28;20064;-77
2020/12/02 09:42:46;;;;;;;7.15;4.35;;;9.00;79.70;;;;;;5011910;28;20641;-78
2020/12/02 09:45:33;;;;;;;6.07;4.07;;;9.00;79.70;;;;;;5007183;28;20049;-83
2020/12/02 09:48:09;;;;;;;7.35;3.92;;;9.00;79.70;;;;;;5010433;28;20064;-77
2020/12/02 09:50:35;;;;;;;6.15;4.15;;;9.00;79.70;;;;;;5015895;28;20546;-76
2020/12/02 09:53:14;;;;;;;6.10;4.25;;;9.00;79.60;;;;;;5013958;28;20112;-78
2020/12/02 09:55:39;;;;;;;7.30;4.30;;;9.00;79.70;;;;;;5012792;28;20074;-77
2020/12/02 09:58:05;;;;;;;6.93;3.75;;;9.00;79.70;;;;;;5010965;28;20061;-78
2020/12/02 10:00:31;;;;;;;7.13;4.65;;;9.00;79.70;;;;;;4998107;28;20450;-77
2020/12/02 10:03:00;;;;;;;6.90;4.20;;;9.00;79.70;;;;;;4998051;28;20058;-78
2020/12/02 10:06:04;;;;;;;7.18;4.18;;;9.00;79.70;;;;;;5029745;28;20022;-77
2020/12/02 10:08:55;;;;;;;6.72;4.03;;;9.00;79.80;;;;;;5016138;28;20037;-77
2020/12/02 10:11:29;;;;;;;6.68;3.90;;;9.00;79.70;;;;;;5013461;28;20034;-77
2020/12/02 10:14:06;;;;;;;5.85;3.92;;;9.00;79.60;;;;;;5006939;28;20034;-77
2020/12/02 10:16:58;;;;;;;5.95;3.40;;;9.00;79.70;;;;;;5007688;28;20369;-77
2020/12/02 10:19:46;;;;;;;6.25;3.80;;;9.00;79.70;;;;;;5013323;28;20491;-77
2020/12/02 10:22:12;;;;;;;6.82;4.22;;;9.00;79.70;;;;;;5008351;28;20389;-78
2020/12/02 10:25:11;;;;;;;6.20;4.07;;;9.00;79.70;;;;;;5014181;28;20085;-76
2020/12/02 10:27:54;;;;;;;6.45;3.85;;;9.00;79.70;;;;;;5017493;28;20030;-77
2020/12/02 10:30:24;;;;;;;5.53;3.80;;;9.00;79.70;;;;;;5014469;28;20046;-77
2020/12/02 10:32:58;;;;;;;6.57;4.13;;;9.00;79.70;;;;;;5015725;28;20322;-77
2020/12/02 10:35:27;;;;;;;6.40;3.97;;;9.00;79.70;;;;;;5029057;28;20052;-76
2020/12/02 10:37:58;;;;;;;6.13;4.10;;;9.10;79.80;;;;;;5005174;28;20176;-77
2020/12/02 10:40:34;;;;;;;6.82;4.20;;;9.10;79.80;;;;;;5013661;28;20473;-77
2020/12/02 10:43:26;;;;;;;6.35;4.10;;;9.10;79.80;;;;;;5015493;28;20060;-76
2020/12/02 10:45:56;;;;;;;6.78;4.18;;;9.10;79.80;;;;;;5011744;28;20100;-77
2020/12/02 10:48:42;;;;;;;6.55;4.30;;;9.10;79.70;;;;;;5006467;28;20026;-76
2020/12/02 10:51:12;;;;;;;6.43;3.92;;;9.00;79.70;;;;;;5013841;28;20034;-77
2020/12/02 10:53:40;;;;;;;6.40;4.32;;;9.10;79.70;;;;;;5029629;28;20025;-77
2020/12/02 10:56:08;;;;;;;5.97;4.00;;;9.00;79.70;;;;;;4995349;28;20509;-77
2020/12/02 10:58:33;;;;;;;6.57;4.20;;;9.10;79.80;;;;;;5013244;28;21515;-77
2020/12/02 11:01:01;;;;;;;7.22;3.95;;;9.10;79.70;;;;;;4996890;28;20030;-77
2020/12/02 11:03:33;;;;;;;6.80;4.32;;;9.10;79.80;;;;;;5009711;28;20052;-77
2020/12/02 11:06:21;;;;;;;6.25;3.80;;;9.10;79.80;;;;;;5010764;28;20025;-79
2020/12/02 11:09:01;;;;;;;8.70;4.80;;;9.10;79.80;;;;;;5002290;28;20072;-76
2020/12/02 11:11:36;;;;;;;6.05;3.95;;;9.10;79.70;;;;;;5012698;28;20037;-82
2020/12/02 11:14:27;;;;;;;6.50;4.10;;;9.10;79.70;;;;;;5014214;28;20498;-81
2020/12/02 11:16:59;;;;;;;6.78;3.85;;;9.10;79.70;;;;;;5008627;28;20030;-76
2020/12/02 11:20:03;;;;;;;7.22;4.05;;;9.10;79.70;;;;;;5028686;28;20038;-77
2020/12/02 11:22:48;;;;;;;6.47;3.97;;;9.10;79.80;;;;;;5011703;28;20026;-77
2020/12/02 11:25:42;;;;;;;7.38;4.22;;;9.10;79.70;;;;;;5014985;28;20018;-80
2020/12/02 11:28:09;;;;;;;6.72;4.70;;;9.10;79.70;;;;;;5014567;28;20030;-77
2020/12/02 11:30:39;;;;;;;7.15;4.60;;;9.10;79.70;;;;;;5014210;28;20037;-77
2020/12/02 11:33:23;;;;;;;6.93;4.00;;;9.10;79.70;;;;;;5013347;28;20108;-76
2020/12/02 11:36:01;;;;;;;7.35;4.40;;;9.10;79.70;;;;;;5010881;28;20088;-76
2020/12/02 11:38:45;;;;;;;6.80;4.05;;;9.10;79.70;;;;;;4996430;28;20025;-76
2020/12/02 11:41:21;;;;;;;6.60;4.25;;;9.10;79.80;;;;;;5006494;28;20034;-77
2020/12/02 11:43:53;;;;;;;7.35;4.45;;;9.10;79.70;;;;;;4999912;28;20036;-76
2020/12/02 11:46:20;;;;;;;6.78;4.40;;;9.10;79.80;;;;;;5016236;28;20032;-76
2020/12/02 11:49:02;;;;;;;7.53;4.22;;;9.10;79.70;;;;;;5018997;28;20052;-77
2020/12/02 11:51:38;;;;;;;7.90;5.03;;;9.10;79.70;;;;;;5028009;28;20118;-76
2020/12/02 11:54:13;;;;;;;7.57;4.18;;;9.10;79.70;;;;;;5012117;28;20022;-77
2020/12/02 11:56:51;;;;;;;8.18;5.00;;;9.10;79.70;;;;;;4990743;28;20133;-76
2020/12/02 11:59:22;;;;;;;7.68;4.47;;;9.20;79.80;;;;;;5011029;28;20056;-78
2020/12/02 12:01:51;;;;;;;7.40;4.38;;;9.10;79.70;;;;;;5011384;28;20026;-77
2020/12/02 12:04:32;;;;;;;7.40;4.40;;;9.20;79.70;;;;;;5013090;28;20100;-78
2020/12/02 12:07:00;;;;;;;8.05;4.43;;;9.20;79.90;;;;;;5019178;28;20034;-77
2020/12/02 12:10:04;;;;;;;8.55;4.93;;;9.20;79.80;;;;;;5013717;28;20501;-79
2020/12/02 12:13:06;;;;;;;6.80;4.53;;;9.20;79.80;;;;;;4990080;28;20042;-77
2020/12/02 12:15:41;;;;;;;7.85;4.43;;;9.20;79.80;;;;;;5015632;28;20087;-78
2020/12/02 12:18:26;;;;;;;7.93;5.03;;;9.20;79.80;;;;;;4998414;28;20027;-77
2020/12/02 12:20:56;;;;;;;7.00;4.65;;;9.10;79.70;;;;;;5022476;28;20034;-76
2020/12/02 12:23:45;;;;;;;8.07;4.93;;;9.20;79.80;;;;;;5013354;28;20164;-76
2020/12/02 12:26:12;;;;;;;7.38;4.43;;;9.20;79.80;;;;;;5020159;28;20022;-77
2020/12/02 12:28:38;;;;;;;9.02;4.90;;;9.20;79.80;;;;;;5022370;28;20046;-77
2020/12/02 12:31:13;;;;;;;7.35;4.65;;;9.10;79.70;;;;;;5012448;28;20037;-77
2020/12/02 12:33:47;;;;;;;7.68;4.50;;;9.20;79.80;;;;;;5012815;28;20026;-77
2020/12/02 12:36:23;;;;;;;7.60;4.53;;;9.20;79.80;;;;;;5021453;28;20029;-76
2020/12/02 12:39:15;;;;;;;8.52;4.80;;;9.20;79.70;;;;;;4993286;28;20034;-76
2020/12/02 12:41:48;;;;;;;7.88;4.28;;;9.20;79.80;;;;;;5019559;28;20061;-77
2020/12/02 12:44:28;;;;;;;9.27;5.00;;;9.20;79.70;;;;;;5011256;28;20041;-76
2020/12/02 12:47:27;;;;;;;7.70;4.63;;;9.20;79.80;;;;;;5012103;28;20105;-76
2020/12/02 12:49:55;;;;;;;7.78;4.90;;;9.20;79.80;;;;;;4993147;28;20036;-76
2020/12/02 12:52:31;;;;;;;8.02;4.95;;;9.20;79.70;;;;;;5011770;28;20048;-76
2020/12/02 12:54:57;;;;;;;8.13;5.05;;;9.20;79.80;;;;;;5007535;28;20041;-76
2020/12/02 12:57:29;;;;;;;10.23;5.53;;;9.20;79.70;;;;;;5011659;28;20026;-76
2020/12/02 13:00:04;;;;;;;7.70;4.80;;;9.20;79.80;;;;;;5011506;28;20041;-77
2020/12/02 13:02:34;;;;;;;7.57;4.55;;;9.20;79.80;;;;;;5011347;28;20523;-77
2020/12/02 13:04:59;;;;;;;9.48;5.47;;;9.20;79.80;;;;;;5006318;28;20026;-76
2020/12/02 13:07:29;;;;;;;8.90;5.20;;;9.20;79.80;;;;;;5001532;28;20437;-76
2020/12/02 13:09:57;;;;;;;9.48;5.78;;;9.20;79.80;;;;;;5025788;28;20129;-76
2020/12/02 13:12:30;;;;;;;7.93;5.30;;;9.20;79.80;;;;;;5017954;28;20038;-77
2020/12/02 13:15:02;;;;;;;9.90;5.65;;;9.20;79.80;;;;;;5019525;28;20021;-77
2020/12/02 13:17:57;;;;;;;9.85;5.43;;;9.20;79.80;;;;;;5019395;28;20018;-76
2020/12/02 13:20:42;;;;;;;10.15;5.68;;;9.20;79.80;;;;;;4990171;28;20422;-77
2020/12/02 13:23:16;;;;;;;8.75;5.38;;;9.20;79.80;;;;;;4998392;28;20083;-78
2020/12/02 13:25:54;;;;;;;8.55;5.47;;;9.20;79.70;;;;;;5014421;28;20061;-78
2020/12/02 13:28:27;;;;;;;8.93;5.53;;;9.20;79.70;;;;;;5010584;28;20017;-76